Time;durP1;ratioP1;P1;durP2;ratioP2;P2;SDS_P1;SDS_P2;PMS_P1;PMS_P2;Temp;Humidity;BMP_temperature;BMP_pressure;BME280_temperature;BME280_humidity;BME280_pressure;Samples;Min_cycle;Max_cycle;Signal;HPM_P1;HPM_P2
2023/07/03 00:02:04;;;;;;;17.38;7.30;;;24.60;94.50;;;;;;5050803;28;20041;-77
2023/07/03 00:05:09;;;;;;;17.83;6.90;;;24.60;94.50;;;;;;5050672;28;20503;-77
2023/07/03 00:08:16;;;;;;;13.52;7.13;;;24.50;94.60;;;;;;5050961;28;20040;-77
2023/07/03 00:11:20;;;;;;;13.13;7.30;;;24.50;94.50;;;;;;5050496;28;20040;-78
2023/07/03 00:14:24;;;;;;;14.75;7.53;;;24.50;94.70;;;;;;5050316;28;20044;-77
2023/07/03 00:17:28;;;;;;;14.82;7.65;;;24.50;94.70;;;;;;5050214;28;20036;-77
2023/07/03 00:20:32;;;;;;;16.55;8.23;;;24.50;94.80;;;;;;5050172;28;20413;-77
2023/07/03 00:23:37;;;;;;;16.40;8.05;;;24.40;94.80;;;;;;5050409;28;20500;-77
2023/07/03 00:26:41;;;;;;;13.23;8.02;;;24.30;95.20;;;;;;5053317;28;20056;-77
2023/07/03 00:29:45;;;;;;;17.60;8.20;;;24.20;95.50;;;;;;5054173;28;20044;-78
2023/07/03 00:32:48;;;;;;;17.73;8.45;;;24.10;95.70;;;;;;5054381;28;20060;-78
2023/07/03 00:35:53;;;;;;;19.08;8.52;;;24.20;95.50;;;;;;5053287;28;20052;-78
2023/07/03 00:38:58;;;;;;;16.33;8.60;;;24.20;95.50;;;;;;5053081;28;20198;-78
2023/07/03 00:42:03;;;;;;;16.20;8.68;;;24.20;95.30;;;;;;5053104;28;20044;-77
2023/07/03 00:45:10;;;;;;;18.25;8.48;;;24.20;95.50;;;;;;5054034;28;20436;-77
2023/07/03 00:48:14;;;;;;;16.45;8.30;;;24.10;95.50;;;;;;5053798;28;20044;-77
2023/07/03 00:51:19;;;;;;;16.25;9.15;;;24.10;95.80;;;;;;5053866;28;20045;-77
2023/07/03 00:54:23;;;;;;;14.93;8.90;;;24.10;95.70;;;;;;5053614;28;20037;-77
2023/07/03 00:57:28;;;;;;;13.95;8.50;;;24.10;95.50;;;;;;5053863;28;20052;-77
2023/07/03 01:00:39;;;;;;;18.92;8.90;;;24.00;95.70;;;;;;5053524;28;20040;-77
2023/07/03 01:03:46;;;;;;;;;;;24.00;95.90;;;;;;5053495;28;20052;-77
2023/07/03 01:06:57;;;;;;;15.63;9.38;;;24.00;95.90;;;;;;5052606;28;19916;-77
2023/07/03 01:10:23;;;;;;;16.90;8.77;;;24.00;96.00;;;;;;5052536;28;20031;-77
2023/07/03 01:13:29;;;;;;;21.50;9.23;;;23.90;96.00;;;;;;5053247;28;20036;-77
2023/07/03 01:16:35;;;;;;;26.02;9.05;;;23.90;96.30;;;;;;5053356;28;20052;-77
2023/07/03 01:19:47;;;;;;;17.70;8.90;;;23.90;96.20;;;;;;5052864;28;20412;-77
2023/07/03 01:23:10;;;;;;;11.02;7.90;;;23.90;96.10;;;;;;5052501;28;20052;-77
2023/07/03 01:26:15;;;;;;;15.18;8.13;;;23.90;96.20;;;;;;5053176;28;20048;-76
2023/07/03 01:29:20;;;;;;;15.35;7.22;;;23.90;96.10;;;;;;5053327;28;20040;-77
2023/07/03 01:32:28;;;;;;;14.48;7.65;;;23.80;96.00;;;;;;5053261;28;20369;-77
2023/07/03 01:35:33;;;;;;;12.68;7.32;;;23.80;96.40;;;;;;5051542;28;20040;-76
2023/07/03 01:38:42;;;;;;;18.70;7.90;;;23.80;96.30;;;;;;5052817;28;20052;-77
2023/07/03 01:41:47;;;;;;;19.10;8.38;;;23.90;96.10;;;;;;5052583;28;20043;-77
2023/07/03 01:44:51;;;;;;;16.90;8.77;;;23.90;95.80;;;;;;5052876;28;20499;-78
2023/07/03 01:47:54;;;;;;;16.15;8.50;;;23.90;96.30;;;;;;5052557;28;20048;-78
2023/07/03 01:50:59;;;;;;;17.67;8.30;;;23.80;96.40;;;;;;5052508;28;20044;-78
2023/07/03 01:54:11;;;;;;;15.10;8.55;;;23.70;96.30;;;;;;5051652;28;20511;-77
2023/07/03 01:57:52;;;;;;;19.92;9.40;;;23.70;96.70;;;;;;5051885;28;20512;-77
2023/07/03 02:01:02;;;;;;;20.65;9.63;;;23.60;96.90;;;;;;5052520;28;20052;-77
2023/07/03 02:04:12;;;;;;;16.60;10.38;;;23.50;97.20;;;;;;5051674;28;20039;-77
2023/07/03 02:07:17;;;;;;;18.80;9.40;;;23.60;97.30;;;;;;5052392;28;20064;-77
2023/07/03 02:10:21;;;;;;;17.55;9.75;;;23.60;97.60;;;;;;5052260;28;20509;-77
2023/07/03 02:13:25;;;;;;;19.08;10.55;;;23.70;97.10;;;;;;5051610;28;20052;-78
2023/07/03 02:16:31;;;;;;;18.73;10.75;;;23.70;97.00;;;;;;5051599;28;20051;-78
2023/07/03 02:19:35;;;;;;;16.65;9.93;;;23.70;96.80;;;;;;5050991;28;20060;-77
2023/07/03 02:22:41;;;;;;;17.45;9.55;;;23.70;97.10;;;;;;5051406;28;20059;-77
2023/07/03 02:25:46;;;;;;;21.05;9.77;;;23.60;97.20;;;;;;5052136;28;20052;-77
2023/07/03 02:28:50;;;;;;;21.55;9.70;;;23.70;97.00;;;;;;5051883;28;20040;-77
2023/07/03 02:31:54;;;;;;;18.95;9.63;;;23.50;97.10;;;;;;5050770;28;20040;-77
2023/07/03 02:34:58;;;;;;;19.48;9.40;;;23.50;97.50;;;;;;5050660;28;20118;-75
2023/07/03 02:38:02;;;;;;;16.30;9.13;;;23.40;97.60;;;;;;5050499;28;20044;-77
2023/07/03 02:41:06;;;;;;;15.13;8.95;;;23.50;97.50;;;;;;5051328;28;20052;-77
2023/07/03 02:44:10;;;;;;;16.13;8.77;;;23.50;97.60;;;;;;5051321;28;20500;-77
2023/07/03 02:47:15;;;;;;;17.05;9.00;;;23.50;97.40;;;;;;5050040;28;20044;-77
2023/07/03 02:50:20;;;;;;;16.13;9.05;;;23.50;97.50;;;;;;5051081;28;20044;-77
2023/07/03 02:53:24;;;;;;;14.63;8.07;;;23.50;97.50;;;;;;5051626;28;20056;-77
2023/07/03 02:56:34;;;;;;;15.75;8.25;;;23.60;97.30;;;;;;5050563;28;20044;-77
2023/07/03 02:59:39;;;;;;;13.85;8.90;;;23.60;97.20;;;;;;5050532;28;20047;-77
2023/07/03 03:02:44;;;;;;;14.15;8.98;;;23.70;97.10;;;;;;5050456;28;20040;-77
2023/07/03 03:05:48;;;;;;;14.32;8.10;;;23.60;97.00;;;;;;5050576;28;20052;-77
2023/07/03 03:08:52;;;;;;;15.32;7.95;;;23.60;97.20;;;;;;5050312;28;20044;-77
2023/07/03 03:11:56;;;;;;;19.05;7.93;;;23.60;97.00;;;;;;5050449;28;20066;-77
2023/07/03 03:15:00;;;;;;;15.98;7.97;;;23.70;97.00;;;;;;5050057;28;20397;-77
2023/07/03 03:18:04;;;;;;;16.10;8.02;;;23.70;97.00;;;;;;5050162;28;20392;-78
2023/07/03 03:21:09;;;;;;;16.10;8.27;;;23.70;97.00;;;;;;5050140;28;20063;-78
2023/07/03 03:24:13;;;;;;;18.63;8.93;;;23.70;96.90;;;;;;5051073;28;20044;-77
2023/07/03 03:27:17;;;;;;;17.17;8.32;;;23.70;96.90;;;;;;5051026;28;20044;-78
2023/07/03 03:30:21;;;;;;;12.18;8.13;;;23.70;96.90;;;;;;5050373;28;20167;-76
2023/07/03 03:33:25;;;;;;;14.18;8.20;;;23.70;96.90;;;;;;5050239;28;20059;-77
2023/07/03 03:36:32;;;;;;;13.75;9.13;;;23.70;96.90;;;;;;5027268;28;20040;-78
2023/07/03 03:39:37;;;;;;;15.32;8.68;;;23.70;96.80;;;;;;5050989;28;20048;-78
2023/07/03 03:42:42;;;;;;;14.15;8.45;;;23.70;97.10;;;;;;5050147;28;20048;-78
2023/07/03 03:45:57;;;;;;;15.35;8.90;;;23.70;96.90;;;;;;5050911;28;20400;-77
2023/07/03 03:49:02;;;;;;;16.85;9.40;;;23.70;97.10;;;;;;5049974;28;20055;-77
2023/07/03 03:52:07;;;;;;;14.88;8.73;;;23.70;97.20;;;;;;5050040;28;20047;-77
2023/07/03 03:55:11;;;;;;;15.52;9.32;;;23.70;97.40;;;;;;5049865;28;20091;-77
2023/07/03 03:58:15;;;;;;;20.52;9.23;;;23.60;97.50;;;;;;5049999;28;20060;-77
2023/07/03 04:01:19;;;;;;;17.25;9.52;;;23.60;97.70;;;;;;5053876;28;20048;-77
2023/07/03 04:04:23;;;;;;;17.17;9.13;;;23.60;97.70;;;;;;5054017;28;20060;-78
2023/07/03 04:07:27;;;;;;;16.80;8.60;;;23.50;97.60;;;;;;5054899;28;20104;-78
2023/07/03 04:10:31;;;;;;;18.35;8.32;;;23.60;97.80;;;;;;5054591;28;20043;-77
2023/07/03 04:13:35;;;;;;;16.67;8.40;;;23.60;97.60;;;;;;5053809;28;20048;-77
2023/07/03 04:16:39;;;;;;;18.08;8.23;;;23.70;97.50;;;;;;5054868;28;20040;-78
2023/07/03 04:19:43;;;;;;;18.48;9.05;;;23.70;97.50;;;;;;5054190;28;20055;-78
2023/07/03 04:22:47;;;;;;;20.95;9.05;;;23.60;97.50;;;;;;5054542;28;20048;-77
2023/07/03 04:25:52;;;;;;;18.25;8.85;;;23.60;97.70;;;;;;5054424;28;20051;-77
2023/07/03 04:28:56;;;;;;;15.90;8.88;;;23.60;97.30;;;;;;5054379;28;20044;-76
2023/07/03 04:31:59;;;;;;;17.42;8.15;;;23.50;97.40;;;;;;5054224;28;20060;-77
2023/07/03 04:35:04;;;;;;;14.65;7.97;;;23.50;97.70;;;;;;5054167;28;20053;-76
2023/07/03 04:38:08;;;;;;;20.52;8.57;;;23.60;97.50;;;;;;5053667;28;20091;-76
2023/07/03 04:41:14;;;;;;;16.85;7.70;;;23.60;97.50;;;;;;5053855;28;20060;-76
2023/07/03 04:44:21;;;;;;;17.08;8.00;;;23.80;97.50;;;;;;5053352;28;20040;-77
2023/07/03 04:47:26;;;;;;;22.20;7.95;;;24.10;97.20;;;;;;5053311;28;20048;-77
2023/07/03 04:50:31;;;;;;;17.25;8.30;;;24.40;96.40;;;;;;5054172;28;20048;-77
2023/07/03 04:53:39;;;;;;;16.77;8.15;;;24.50;96.30;;;;;;5053797;28;20392;-78
2023/07/03 04:56:44;;;;;;;16.88;8.45;;;24.40;96.10;;;;;;5053784;28;20048;-77
2023/07/03 04:59:48;;;;;;;17.92;8.25;;;24.50;96.10;;;;;;5053353;28;20056;-77
2023/07/03 05:02:56;;;;;;;18.63;9.20;;;24.60;96.20;;;;;;5053529;28;20044;-77
2023/07/03 05:06:00;;;;;;;18.27;8.55;;;24.70;96.20;;;;;;5053430;28;20048;-77
2023/07/03 05:09:05;;;;;;;15.90;8.50;;;24.80;96.00;;;;;;5053449;28;20044;-77
2023/07/03 05:12:09;;;;;;;19.75;8.27;;;25.00;95.80;;;;;;5052745;28;20499;-77
2023/07/03 05:15:15;;;;;;;17.90;8.00;;;25.10;95.90;;;;;;5052495;28;20048;-77
2023/07/03 05:18:20;;;;;;;18.88;9.55;;;25.30;95.80;;;;;;5053323;28;20052;-77
2023/07/03 05:21:24;;;;;;;23.30;8.55;;;25.50;95.30;;;;;;5053501;28;20047;-78
2023/07/03 05:24:28;;;;;;;31.90;9.80;;;25.70;95.40;;;;;;5053333;28;20104;-78
2023/07/03 05:27:32;;;;;;;27.58;8.75;;;25.80;94.80;;;;;;5052321;28;20504;-78
2023/07/03 05:30:37;;;;;;;25.63;9.50;;;25.90;94.60;;;;;;5052096;28;20048;-77
2023/07/03 05:33:40;;;;;;;20.30;8.80;;;26.00;94.60;;;;;;5052972;28;20040;-76
2023/07/03 05:36:44;;;;;;;21.80;9.15;;;26.10;94.20;;;;;;5053105;28;20036;-68
2023/07/03 05:39:49;;;;;;;25.08;10.07;;;26.20;94.10;;;;;;5052812;28;20052;-68
2023/07/03 05:42:53;;;;;;;18.70;9.00;;;26.20;94.20;;;;;;5052575;28;20079;-68
2023/07/03 05:45:56;;;;;;;20.45;8.63;;;26.30;94.10;;;;;;5052922;28;20063;-69
2023/07/03 05:49:00;;;;;;;20.40;9.55;;;26.30;94.10;;;;;;5052981;28;20055;-70
2023/07/03 05:52:05;;;;;;;22.75;8.88;;;26.50;93.90;;;;;;5052435;28;20052;-68
2023/07/03 05:55:10;;;;;;;27.35;9.48;;;26.50;94.10;;;;;;5052565;28;20073;-68
2023/07/03 05:58:14;;;;;;;21.08;9.85;;;26.60;93.70;;;;;;5052700;28;20043;-70
2023/07/03 06:01:18;;;;;;;29.23;9.57;;;26.80;93.90;;;;;;5052325;28;20052;-69
2023/07/03 06:04:23;;;;;;;23.45;9.60;;;26.80;93.60;;;;;;5052461;28;20043;-67
2023/07/03 06:07:27;;;;;;;27.05;10.82;;;27.00;93.40;;;;;;5051872;28;20044;-68
2023/07/03 06:10:31;;;;;;;26.42;10.23;;;27.10;93.00;;;;;;5052502;28;20406;-71
2023/07/03 06:13:35;;;;;;;31.95;10.48;;;27.10;93.10;;;;;;5051827;28;20396;-70
2023/07/03 06:16:39;;;;;;;26.60;10.63;;;27.10;93.00;;;;;;5052383;28;20500;-70
2023/07/03 06:19:43;;;;;;;23.80;9.88;;;27.00;93.10;;;;;;5050664;28;20056;-70
2023/07/03 06:22:47;;;;;;;23.15;9.98;;;27.20;93.00;;;;;;5052034;28;20048;-69
2023/07/03 06:25:51;;;;;;;30.92;10.27;;;27.40;92.60;;;;;;5052174;28;20052;-70
2023/07/03 06:28:55;;;;;;;29.50;10.98;;;27.70;92.40;;;;;;5051871;28;20350;-70
2023/07/03 06:31:59;;;;;;;31.00;11.45;;;27.90;92.00;;;;;;5051914;28;20487;-68
2023/07/03 06:35:03;;;;;;;22.65;10.20;;;27.90;91.80;;;;;;5050922;28;20047;-69
2023/07/03 06:38:08;;;;;;;26.10;11.35;;;28.00;91.40;;;;;;5052083;28;20044;-71
2023/07/03 06:41:12;;;;;;;20.98;10.30;;;28.20;91.30;;;;;;5050917;28;20084;-70
2023/07/03 06:44:17;;;;;;;25.48;10.63;;;28.30;91.20;;;;;;5051661;28;20048;-68
2023/07/03 06:47:20;;;;;;;20.33;9.70;;;28.30;91.40;;;;;;5051592;28;20052;-69
2023/07/03 06:50:24;;;;;;;25.70;9.80;;;28.20;91.10;;;;;;5051336;28;20044;-70
2023/07/03 06:53:28;;;;;;;30.67;10.25;;;28.30;91.10;;;;;;5051560;28;20508;-69
2023/07/03 06:56:32;;;;;;;19.27;9.10;;;28.50;90.90;;;;;;5051794;28;20048;-71
2023/07/03 06:59:36;;;;;;;20.63;8.77;;;28.80;90.70;;;;;;5051463;28;20067;-68
2023/07/03 07:02:40;;;;;;;17.25;8.25;;;28.80;90.50;;;;;;5051094;28;20044;-67
2023/07/03 07:05:45;;;;;;;23.58;10.27;;;28.80;90.00;;;;;;5051594;28;20392;-70
2023/07/03 07:08:50;;;;;;;33.10;10.05;;;28.90;89.40;;;;;;5050270;28;20047;-71
2023/07/03 07:11:54;;;;;;;24.67;9.75;;;29.00;90.30;;;;;;5051016;28;20039;-69
2023/07/03 07:14:58;;;;;;;19.10;9.18;;;29.40;89.30;;;;;;5050803;28;20507;-70
2023/07/03 07:18:03;;;;;;;22.95;9.10;;;29.40;88.10;;;;;;5050943;28;20055;-69
2023/07/03 07:21:07;;;;;;;24.65;9.73;;;29.50;87.40;;;;;;5050592;28;20048;-69
2023/07/03 07:24:14;;;;;;;18.95;9.25;;;29.50;88.00;;;;;;5050357;28;20048;-68
2023/07/03 07:27:19;;;;;;;24.17;9.30;;;29.50;87.70;;;;;;5050815;28;20040;-68
2023/07/03 07:30:23;;;;;;;18.33;9.38;;;29.60;87.20;;;;;;5050891;28;20048;-67
2023/07/03 07:33:27;;;;;;;23.75;8.55;;;29.80;86.90;;;;;;5050309;28;20052;-67
2023/07/03 07:36:31;;;;;;;19.33;8.70;;;30.10;85.60;;;;;;5050877;28;20120;-67
2023/07/03 07:39:42;;;;;;;21.58;8.82;;;30.30;84.90;;;;;;5050646;28;20059;-68
2023/07/03 07:42:46;;;;;;;22.73;9.15;;;30.30;84.50;;;;;;5050674;28;20048;-67
2023/07/03 07:45:53;;;;;;;25.40;9.63;;;30.00;85.10;;;;;;5050773;28;20047;-67
2023/07/03 07:48:59;;;;;;;22.77;8.68;;;29.40;86.70;;;;;;5050463;28;20048;-68
2023/07/03 07:52:03;;;;;;;19.90;9.00;;;29.30;86.90;;;;;;5050606;28;20369;-67
2023/07/03 07:55:07;;;;;;;23.48;8.95;;;29.20;86.70;;;;;;5050684;28;20052;-68
2023/07/03 07:58:11;;;;;;;16.17;8.55;;;29.30;88.10;;;;;;5050896;28;20055;-68
2023/07/03 08:01:16;;;;;;;20.52;8.45;;;29.60;86.30;;;;;;5050329;28;20056;-68
2023/07/03 08:04:21;;;;;;;18.35;8.93;;;30.00;84.20;;;;;;5050517;28;20040;-70
2023/07/03 08:07:25;;;;;;;17.63;8.10;;;30.20;84.70;;;;;;5050525;28;20048;-68
2023/07/03 08:10:29;;;;;;;21.40;9.02;;;30.50;83.90;;;;;;5050671;28;20044;-68
2023/07/03 08:13:34;;;;;;;20.63;8.77;;;30.50;82.80;;;;;;5050052;28;20040;-67
2023/07/03 08:16:37;;;;;;;23.90;9.82;;;30.50;82.80;;;;;;5050685;28;20067;-68
2023/07/03 08:19:41;;;;;;;16.55;8.43;;;30.70;83.20;;;;;;5050014;28;20060;-67
2023/07/03 08:22:45;;;;;;;23.33;9.20;;;30.90;82.60;;;;;;5050369;28;20044;-68
2023/07/03 08:25:51;;;;;;;19.48;8.48;;;30.80;82.70;;;;;;5049656;28;20040;-70
2023/07/03 08:28:55;;;;;;;18.60;9.13;;;30.70;83.10;;;;;;5050668;28;20423;-70
2023/07/03 08:31:59;;;;;;;13.73;8.48;;;30.50;83.20;;;;;;5050534;28;20504;-67
2023/07/03 08:35:03;;;;;;;15.68;7.78;;;30.40;84.00;;;;;;5050460;28;20053;-69
2023/07/03 08:38:11;;;;;;;20.00;8.23;;;30.70;81.20;;;;;;5050346;28;20051;-69
2023/07/03 08:41:16;;;;;;;17.27;7.93;;;31.10;81.30;;;;;;5050510;28;20504;-65
2023/07/03 08:44:20;;;;;;;19.27;8.32;;;31.30;80.10;;;;;;5049853;28;20405;-66
2023/07/03 08:47:30;;;;;;;50.08;9.90;;;31.30;79.40;;;;;;5053303;28;20056;-69
2023/07/03 08:50:35;;;;;;;14.70;6.83;;;31.50;80.00;;;;;;5053702;28;20047;-68
2023/07/03 08:53:41;;;;;;;14.05;7.25;;;31.60;79.60;;;;;;5053784;28;20048;-68
2023/07/03 08:56:47;;;;;;;16.63;7.90;;;31.60;80.50;;;;;;5053506;28;20032;-70
2023/07/03 08:59:53;;;;;;;25.52;8.05;;;31.70;80.30;;;;;;5053609;28;20060;-69
2023/07/03 09:03:13;;;;;;;15.10;7.07;;;31.90;78.50;;;;;;5053668;28;20052;-71
2023/07/03 09:06:52;;;;;;;19.67;8.38;;;31.70;79.70;;;;;;5053244;28;20108;-69
2023/07/03 09:10:17;;;;;;;19.65;7.55;;;31.70;81.10;;;;;;5053233;28;20392;-68
2023/07/03 09:13:45;;;;;;;15.70;8.90;;;31.90;80.70;;;;;;5053073;28;20048;-68
2023/07/03 09:16:49;;;;;;;17.58;7.93;;;32.20;80.80;;;;;;5053494;28;20052;-69
2023/07/03 09:19:55;;;;;;;20.63;8.18;;;32.30;79.30;;;;;;5053037;28;20075;-70
2023/07/03 09:23:23;;;;;;;19.02;8.00;;;32.30;79.40;;;;;;5053310;28;20048;-71
2023/07/03 09:26:57;;;;;;;18.42;8.35;;;32.30;79.40;;;;;;5053107;28;20044;-70
2023/07/03 09:30:06;;;;;;;16.58;8.43;;;32.50;79.30;;;;;;5052864;28;20147;-72
2023/07/03 09:33:10;;;;;;;18.08;7.35;;;32.60;79.00;;;;;;5052913;28;20396;-73
2023/07/03 09:36:35;;;;;;;14.13;7.65;;;32.70;78.80;;;;;;5053379;28;20051;-70
2023/07/03 09:39:39;;;;;;;13.15;7.20;;;32.60;78.50;;;;;;5052820;28;20048;-69
2023/07/03 09:42:43;;;;;;;18.83;7.88;;;32.70;78.80;;;;;;5052845;28;20500;-69
2023/07/03 09:45:48;;;;;;;14.13;6.85;;;32.80;78.20;;;;;;5052636;28;20060;-70
2023/07/03 09:48:52;;;;;;;15.68;7.70;;;32.90;78.60;;;;;;5052738;28;20063;-68
2023/07/03 09:51:58;;;;;;;17.70;7.72;;;32.90;78.50;;;;;;5052767;28;20060;-71
2023/07/03 09:55:03;;;;;;;17.58;8.18;;;33.00;78.10;;;;;;5052354;28;20424;-74
2023/07/03 09:58:16;;;;;;;12.98;6.43;;;32.90;76.60;;;;;;5052313;28;20064;-72
2023/07/03 10:01:23;;;;;;;13.73;7.63;;;32.90;76.90;;;;;;5052397;28;20056;-70
2023/07/03 10:04:30;;;;;;;14.73;7.15;;;32.90;77.10;;;;;;5051734;28;20385;-72
2023/07/03 10:07:43;;;;;;;13.98;6.93;;;32.90;76.90;;;;;;5052254;28;20496;-69
2023/07/03 10:10:49;;;;;;;19.60;7.70;;;32.90;76.90;;;;;;5052044;28;20044;-68
2023/07/03 10:13:53;;;;;;;16.33;7.53;;;32.90;77.10;;;;;;5052026;28;20052;-70
2023/07/03 10:17:00;;;;;;;12.52;7.78;;;32.90;77.70;;;;;;5052418;28;20048;-71
2023/07/03 10:20:12;;;;;;;14.27;7.60;;;32.90;77.60;;;;;;5051792;28;20507;-72
2023/07/03 10:23:23;;;;;;;18.38;8.13;;;32.90;76.90;;;;;;5051754;28;20055;-71
2023/07/03 10:26:30;;;;;;;;;;;32.80;77.60;;;;;;5052573;28;20048;-72
2023/07/03 10:29:46;;;;;;;13.30;6.80;;;32.80;77.00;;;;;;5052001;28;19931;-71
2023/07/03 10:32:53;;;;;;;14.23;6.65;;;32.80;76.60;;;;;;5051217;28;20059;-68
2023/07/03 10:35:57;;;;;;;19.88;6.97;;;32.70;76.20;;;;;;5049197;28;20047;-69
2023/07/03 10:39:08;;;;;;;11.65;6.72;;;32.60;77.00;;;;;;5051814;28;20044;-68
2023/07/03 10:42:25;;;;;;;11.88;5.90;;;32.60;76.60;;;;;;5049810;28;20055;-69
2023/07/03 10:45:32;;;;;;;10.68;6.38;;;32.60;76.90;;;;;;5050467;28;20040;-69
2023/07/03 10:48:37;;;;;;;11.98;6.35;;;32.70;76.20;;;;;;5051278;28;20043;-68
2023/07/03 10:51:52;;;;;;;17.58;6.35;;;32.60;75.70;;;;;;5051038;28;20043;-70
2023/07/03 10:55:12;;;;;;;16.08;6.05;;;32.50;75.20;;;;;;5050905;28;20036;-69
2023/07/03 10:58:37;;;;;;;9.15;4.97;;;32.50;76.00;;;;;;5051402;28;20052;-69
2023/07/03 11:02:02;;;;;;;13.02;5.93;;;32.50;76.50;;;;;;5051249;28;20052;-70
2023/07/03 11:05:34;;;;;;;10.38;5.70;;;32.50;76.40;;;;;;5051595;28;20116;-68
2023/07/03 11:08:41;;;;;;;10.25;5.32;;;32.50;76.10;;;;;;5050308;28;20040;-69
2023/07/03 11:12:16;;;;;;;15.60;6.18;;;32.30;76.00;;;;;;5051009;28;20651;-69
2023/07/03 11:15:29;;;;;;;11.13;5.55;;;32.20;77.20;;;;;;5050217;28;20040;-69
2023/07/03 11:18:54;;;;;;;16.25;5.65;;;32.20;77.90;;;;;;5051011;28;20060;-69
2023/07/03 11:22:06;;;;;;;11.43;5.10;;;32.10;78.10;;;;;;5050921;28;20055;-68
2023/07/03 11:25:36;;;;;;;18.75;5.03;;;32.00;78.50;;;;;;5051215;28;20051;-69
2023/07/03 11:28:48;;;;;;;12.18;4.65;;;31.90;77.80;;;;;;5051120;28;20503;-67
2023/07/03 11:31:52;;;;;;;15.82;4.75;;;31.80;78.20;;;;;;5050695;28;20044;-69
2023/07/03 11:34:56;;;;;;;8.65;3.95;;;31.80;77.80;;;;;;5050805;28;20052;-69
2023/07/03 11:38:05;;;;;;;8.93;4.43;;;31.80;77.80;;;;;;5050725;28;20040;-69
2023/07/03 11:41:10;;;;;;;14.05;4.47;;;31.70;77.30;;;;;;5050831;28;20416;-69
2023/07/03 11:44:30;;;;;;;10.70;4.57;;;31.80;77.60;;;;;;5050610;28;20052;-68
2023/07/03 11:47:34;;;;;;;10.13;3.80;;;31.70;77.20;;;;;;5050984;28;20056;-70
2023/07/03 11:50:38;;;;;;;9.65;3.95;;;31.70;78.00;;;;;;5050613;28;20036;-69
2023/07/03 11:53:51;;;;;;;8.43;3.90;;;31.70;77.70;;;;;;5050776;28;20040;-70
2023/07/03 11:57:03;;;;;;;7.65;4.00;;;31.70;77.80;;;;;;5050875;28;20056;-69
2023/07/03 12:00:27;;;;;;;10.85;4.25;;;31.60;77.50;;;;;;5050730;28;20056;-69
2023/07/03 12:03:50;;;;;;;9.80;3.67;;;31.60;76.80;;;;;;5050463;28;20044;-70
2023/07/03 12:06:55;;;;;;;11.45;4.18;;;31.50;77.10;;;;;;5050694;28;20048;-69
2023/07/03 12:10:17;;;;;;;8.02;4.07;;;31.40;77.40;;;;;;5050468;28;20503;-70
2023/07/03 12:13:41;;;;;;;8.88;4.38;;;31.40;77.70;;;;;;5050684;28;20052;-70
2023/07/03 12:16:47;;;;;;;8.05;3.92;;;31.40;78.00;;;;;;5050795;28;20048;-69
2023/07/03 12:20:02;;;;;;;13.00;3.78;;;31.40;77.10;;;;;;5050987;28;20124;-69
2023/07/03 12:23:05;;;;;;;10.05;3.95;;;31.40;77.80;;;;;;5054190;28;20072;-69
2023/07/03 12:26:12;;;;;;;9.27;3.58;;;31.30;78.60;;;;;;5054331;28;20047;-70
2023/07/03 12:29:19;;;;;;;8.30;3.60;;;31.20;78.20;;;;;;5053701;28;20503;-70
2023/07/03 12:32:32;;;;;;;8.95;3.58;;;31.20;78.80;;;;;;5054405;28;20050;-68
2023/07/03 12:35:42;;;;;;;12.63;3.80;;;31.10;78.70;;;;;;5054298;28;20120;-69
2023/07/03 12:38:47;;;;;;;7.78;3.50;;;31.10;78.40;;;;;;5054235;28;20048;-70
2023/07/03 12:41:51;;;;;;;7.82;4.07;;;31.10;78.40;;;;;;5053627;28;20052;-72
2023/07/03 12:45:13;;;;;;;9.75;3.67;;;31.10;78.80;;;;;;5054055;28;20423;-69
2023/07/03 12:48:19;;;;;;;9.40;3.72;;;31.00;79.20;;;;;;5053787;28;20044;-71
2023/07/03 12:51:24;;;;;;;10.70;3.90;;;31.00;78.80;;;;;;5053913;28;20056;-69
2023/07/03 12:54:27;;;;;;;18.52;4.53;;;31.00;79.40;;;;;;5053712;28;20048;-72
2023/07/03 12:57:34;;;;;;;7.63;3.80;;;30.90;79.70;;;;;;5053143;28;20036;-72
2023/07/03 13:00:38;;;;;;;9.82;4.40;;;30.90;80.00;;;;;;5052970;28;20515;-72
2023/07/03 13:03:42;;;;;;;16.50;5.72;;;30.90;80.90;;;;;;5052869;28;20047;-72
2023/07/03 13:06:46;;;;;;;12.68;4.75;;;30.90;81.30;;;;;;5053685;28;20063;-71
2023/07/03 13:09:53;;;;;;;17.05;5.85;;;30.90;80.60;;;;;;5053522;28;20040;-72
2023/07/03 13:13:06;;;;;;;12.73;5.47;;;30.90;80.90;;;;;;5041348;28;20048;-72
2023/07/03 13:16:15;;;;;;;13.13;5.30;;;30.90;81.70;;;;;;5053475;28;20040;-70
2023/07/03 13:19:35;;;;;;;13.35;5.32;;;30.80;82.20;;;;;;5053201;28;20433;-71
2023/07/03 13:22:49;;;;;;;16.05;5.22;;;30.80;82.30;;;;;;5053306;28;20511;-72
2023/07/03 13:25:54;;;;;;;11.65;4.57;;;30.80;82.20;;;;;;5053250;28;20044;-71
2023/07/03 13:29:01;;;;;;;10.15;4.65;;;30.80;81.40;;;;;;5053191;28;20067;-72
2023/07/03 13:32:13;;;;;;;12.25;4.50;;;30.80;80.80;;;;;;5052177;28;20422;-73
2023/07/03 13:35:29;;;;;;;11.23;5.47;;;30.80;81.10;;;;;;5052931;28;20205;-72
2023/07/03 13:38:34;;;;;;;11.65;5.03;;;30.80;81.20;;;;;;5053090;28;20052;-71
2023/07/03 13:41:39;;;;;;;19.38;5.93;;;30.70;80.20;;;;;;5040278;28;20052;-72
2023/07/03 13:44:43;;;;;;;13.52;4.88;;;30.70;80.20;;;;;;5052924;28;20056;-73
2023/07/03 13:47:47;;;;;;;13.63;5.00;;;30.70;80.50;;;;;;5053145;28;20052;-72
2023/07/03 13:50:52;;;;;;;13.50;5.35;;;30.60;80.00;;;;;;5052788;28;20040;-73
2023/07/03 13:53:58;;;;;;;16.00;5.38;;;30.60;81.50;;;;;;5052625;28;20048;-73
2023/07/03 13:57:03;;;;;;;13.63;5.75;;;30.60;81.00;;;;;;5052998;28;20056;-72
2023/07/03 14:00:08;;;;;;;11.13;5.10;;;30.60;81.00;;;;;;5051615;28;20051;-72
2023/07/03 14:03:15;;;;;;;15.77;6.35;;;30.60;80.70;;;;;;5040400;28;20424;-72
2023/07/03 14:06:20;;;;;;;12.25;4.90;;;30.60;81.00;;;;;;5041747;28;20179;-72
2023/07/03 14:09:24;;;;;;;12.10;5.00;;;30.50;80.90;;;;;;5053192;28;20408;-72
2023/07/03 14:12:28;;;;;;;15.60;5.38;;;30.50;81.30;;;;;;5051451;28;20487;-72
2023/07/03 14:15:35;;;;;;;14.52;5.70;;;30.50;81.40;;;;;;5052058;28;20044;-72
2023/07/03 14:18:39;;;;;;;9.55;5.22;;;30.40;81.60;;;;;;5052052;28;20044;-73
2023/07/03 14:21:43;;;;;;;14.52;5.78;;;30.50;82.30;;;;;;5051970;28;20504;-72
2023/07/03 14:24:46;;;;;;;12.52;5.25;;;30.40;82.00;;;;;;5052106;28;20048;-71
2023/07/03 14:27:51;;;;;;;15.70;5.40;;;30.40;81.90;;;;;;5051907;28;20511;-71
2023/07/03 14:30:55;;;;;;;22.73;6.07;;;30.40;82.30;;;;;;5051539;28;20432;-72
2023/07/03 14:33:58;;;;;;;14.90;5.65;;;30.40;82.60;;;;;;5052891;28;20047;-73
2023/07/03 14:37:03;;;;;;;13.88;5.25;;;30.40;81.50;;;;;;5052492;28;20052;-72
2023/07/03 14:40:11;;;;;;;12.23;5.30;;;30.40;82.60;;;;;;5052024;28;20044;-72
2023/07/03 14:43:15;;;;;;;13.18;5.82;;;30.40;82.60;;;;;;5052234;28;20044;-71
2023/07/03 14:46:19;;;;;;;14.85;5.32;;;30.40;82.70;;;;;;5051908;28;20428;-72
2023/07/03 14:49:22;;;;;;;12.40;5.32;;;30.40;81.90;;;;;;5051508;28;20516;-72
2023/07/03 14:52:38;;;;;;;15.30;5.57;;;30.30;82.20;;;;;;5051576;28;20044;-71
2023/07/03 14:55:42;;;;;;;12.48;4.97;;;30.30;82.10;;;;;;5051318;28;20052;-71
2023/07/03 14:58:46;;;;;;;12.00;4.90;;;30.30;82.60;;;;;;5051034;28;20393;-70
2023/07/03 15:01:50;;;;;;;13.57;5.72;;;30.20;82.20;;;;;;5050303;28;20055;-73
2023/07/03 15:04:54;;;;;;;12.27;5.07;;;30.30;81.90;;;;;;5051370;28;20051;-71
2023/07/03 15:07:58;;;;;;;11.77;5.28;;;30.30;82.20;;;;;;5051420;28;20051;-70
2023/07/03 15:11:02;;;;;;;12.38;5.28;;;30.30;82.40;;;;;;5050983;28;20116;-68
2023/07/03 15:14:08;;;;;;;12.02;6.13;;;30.30;81.80;;;;;;5051008;28;20051;-68
2023/07/03 15:17:12;;;;;;;12.63;4.10;;;30.30;80.40;;;;;;5051193;28;20066;-69
2023/07/03 15:20:16;;;;;;;10.13;4.22;;;30.20;80.60;;;;;;5049113;28;20587;-71
2023/07/03 15:23:20;;;;;;;13.25;4.07;;;30.10;79.60;;;;;;5050729;28;20107;-71
2023/07/03 15:26:26;;;;;;;7.93;3.80;;;30.10;78.80;;;;;;5050206;28;20045;-71
2023/07/03 15:29:30;;;;;;;16.38;3.60;;;30.10;77.30;;;;;;5050471;28;20116;-69
2023/07/03 15:32:35;;;;;;;7.35;3.45;;;30.10;76.30;;;;;;5050619;28;20040;-68
2023/07/03 15:35:40;;;;;;;7.18;3.30;;;30.90;73.80;;;;;;5051087;28;20040;-70
2023/07/03 15:38:44;;;;;;;5.97;3.47;;;32.10;70.20;;;;;;5050671;28;20404;-67
2023/07/03 15:41:48;;;;;;;4.80;3.65;;;32.90;68.80;;;;;;5050284;28;20048;-69
2023/07/03 15:44:57;;;;;;;8.45;3.22;;;33.40;67.10;;;;;;5050494;28;20143;-70
2023/07/03 15:48:01;;;;;;;9.82;3.55;;;33.90;67.20;;;;;;5049863;28;20048;-69
2023/07/03 15:51:06;;;;;;;11.43;3.80;;;34.10;66.30;;;;;;5050896;28;20069;-68
2023/07/03 15:54:10;;;;;;;9.65;3.70;;;33.90;66.00;;;;;;5050246;28;20044;-71
2023/07/03 15:57:14;;;;;;;7.47;3.30;;;34.00;65.30;;;;;;5054889;28;20054;-69
2023/07/03 16:00:18;;;;;;;10.82;3.83;;;33.80;64.20;;;;;;5054826;28;20040;-70
2023/07/03 16:03:22;;;;;;;10.85;3.70;;;34.20;64.80;;;;;;5054010;28;20400;-70